Hauptseite
METAR-TAF:

METAR-TAF

Flughäfen :

Flughafen Bagdad

Bagdad, Irak

Breite: 33-15-45N, Länge: 44-14-04E, Höhe: 35 m

Beobachtung

Neuester Wetterbericht von vor 33 Minuten, um 08:00 UTC
Wind 14 kt aus Ost, variierte zwischen Ost/Nordost und Südost
Temperatur 30°C
Luftfeuchtigkeit 35%
Luftdruck 1014 hPa
Sichtweite: 6000 m
Durchbrochene Bewölkung in der Höhe von 3000 ft

METAR: ORBI 160800Z 10014KT 070V130 6000 BKN030 30/13 Q1014 NOSIG

Zeit: 11:33 (08:33 UTC)

Prognose

Neuester Wetterbericht von vor 4 Stunden und 33 Minuten, um 04:00 UTC
Gültige Prognose vom 16 um 06 UTC bis 17 um 06 UTC
Wind 8 kt aus Ost/Südost
Sichtweite: 8000 m
Aufgelockert bewölkt in der Höhe von 3000 ft
Aufgelockert bewölkt in der Höhe von 8000 ft

TAF: ORBI 160400Z 1606/1706 12008KT 8000 SCT030 SCT080

Wetterbeobachtungen und Prognosen von mehr als 4000 Flughäfen (METAR und TAF Bericht).

Die verfügbaren Stationen werden durch gelbe und rote Markierungen auf der Karte dargestellt.

Führen Sie die Maus auf sie, um den Namen der Station zu sehen.

Darauf klicken, um die Beobachtung von Wetterbeobachtungen und Prognosen zu sehen.

Um die Karte zu ändern : klicken Sie auf den grünen Tasten mit einem schwarzen Kreuz Zum Vergrößern, auf den grünen Button mit einem Gedankenstrich zu verkleinern, oder auf die grünen Pfeile für benachbarte Karten.


METAR-TAF: